sensor_id;sensor_type;location;lat;lon;timestamp;temperature;humidity
47805;DHT22;33568;45.286;9.900;2022-11-25T00:01:14;7.90;97.40
47805;DHT22;33568;45.286;9.900;2022-11-25T00:03:42;7.90;97.40
47805;DHT22;33568;45.286;9.900;2022-11-25T00:06:15;7.90;97.40
47805;DHT22;33568;45.286;9.900;2022-11-25T00:08:43;7.90;97.40
47805;DHT22;33568;45.286;9.900;2022-11-25T00:11:10;7.90;97.40
47805;DHT22;33568;45.286;9.900;2022-11-25T00:13:37;7.80;97.40
47805;DHT22;33568;45.286;9.900;2022-11-25T00:16:08;7.80;97.30
47805;DHT22;33568;45.286;9.900;2022-11-25T00:18:35;7.80;97.30
47805;DHT22;33568;45.286;9.900;2022-11-25T00:21:11;7.80;97.30
47805;DHT22;33568;45.286;9.900;2022-11-25T00:23:38;7.70;97.30
47805;DHT22;33568;45.286;9.900;2022-11-25T00:26:10;7.70;97.30
47805;DHT22;33568;45.286;9.900;2022-11-25T00:28:38;7.70;97.40
47805;DHT22;33568;45.286;9.900;2022-11-25T00:31:13;7.60;97.50
47805;DHT22;33568;45.286;9.900;2022-11-25T00:33:40;7.60;97.50
47805;DHT22;33568;45.286;9.900;2022-11-25T00:38:42;7.50;97.50
47805;DHT22;33568;45.286;9.900;2022-11-25T00:41:09;7.50;97.40
47805;DHT22;33568;45.286;9.900;2022-11-25T00:43:54;7.50;97.40
47805;DHT22;33568;45.286;9.900;2022-11-25T00:46:39;7.50;97.50
47805;DHT22;33568;45.286;9.900;2022-11-25T00:49:06;7.50;97.50
47805;DHT22;33568;45.286;9.900;2022-11-25T00:51:32;7.50;97.50
47805;DHT22;33568;45.286;9.900;2022-11-25T00:53:59;7.50;97.80
47805;DHT22;33568;45.286;9.900;2022-11-25T00:56:25;7.50;97.50
47805;DHT22;33568;45.286;9.900;2022-11-25T00:58:52;7.50;97.90
47805;DHT22;33568;45.286;9.900;2022-11-25T01:01:18;7.50;97.70
47805;DHT22;33568;45.286;9.900;2022-11-25T01:03:48;7.40;98.20
47805;DHT22;33568;45.286;9.900;2022-11-25T01:06:14;7.50;97.80
47805;DHT22;33568;45.286;9.900;2022-11-25T01:08:41;7.50;97.60
47805;DHT22;33568;45.286;9.900;2022-11-25T01:11:11;7.40;97.70
47805;DHT22;33568;45.286;9.900;2022-11-25T01:13:39;7.40;97.80
47805;DHT22;33568;45.286;9.900;2022-11-25T01:16:07;7.50;97.80
47805;DHT22;33568;45.286;9.900;2022-11-25T01:18:34;7.50;97.80
47805;DHT22;33568;45.286;9.900;2022-11-25T01:21:14;7.50;97.80
47805;DHT22;33568;45.286;9.900;2022-11-25T01:23:41;7.50;98.30
47805;DHT22;33568;45.286;9.900;2022-11-25T01:26:13;7.50;97.80
47805;DHT22;33568;45.286;9.900;2022-11-25T01:28:40;7.50;97.80
47805;DHT22;33568;45.286;9.900;2022-11-25T01:31:15;7.60;97.80
47805;DHT22;33568;45.286;9.900;2022-11-25T01:33:43;7.60;97.80
47805;DHT22;33568;45.286;9.900;2022-11-25T01:36:15;7.60;97.90
47805;DHT22;33568;45.286;9.900;2022-11-25T01:38:43;7.60;98.00
47805;DHT22;33568;45.286;9.900;2022-11-25T01:41:12;7.70;98.00
47805;DHT22;33568;45.286;9.900;2022-11-25T01:43:40;7.70;98.00
47805;DHT22;33568;45.286;9.900;2022-11-25T01:46:08;7.80;98.00
47805;DHT22;33568;45.286;9.900;2022-11-25T01:48:40;7.80;98.00
47805;DHT22;33568;45.286;9.900;2022-11-25T01:51:29;7.80;98.10
47805;DHT22;33568;45.286;9.900;2022-11-25T01:54:01;7.80;98.10
47805;DHT22;33568;45.286;9.900;2022-11-25T01:56:32;7.80;98.10
47805;DHT22;33568;45.286;9.900;2022-11-25T01:59:01;7.80;98.10
47805;DHT22;33568;45.286;9.900;2022-11-25T02:01:28;7.80;98.20
47805;DHT22;33568;45.286;9.900;2022-11-25T02:03:56;7.80;98.20
47805;DHT22;33568;45.286;9.900;2022-11-25T02:06:43;7.70;98.20
47805;DHT22;33568;45.286;9.900;2022-11-25T02:09:13;7.70;98.50
47805;DHT22;33568;45.286;9.900;2022-11-25T02:11:41;7.70;98.60
47805;DHT22;33568;45.286;9.900;2022-11-25T02:14:11;7.70;98.60
47805;DHT22;33568;45.286;9.900;2022-11-25T02:16:39;7.60;98.60
47805;DHT22;33568;45.286;9.900;2022-11-25T02:19:29;7.60;98.70
47805;DHT22;33568;45.286;9.900;2022-11-25T02:22:01;7.60;98.80
47805;DHT22;33568;45.286;9.900;2022-11-25T02:24:44;7.70;98.70
47805;DHT22;33568;45.286;9.900;2022-11-25T02:27:13;7.70;98.60
47805;DHT22;33568;45.286;9.900;2022-11-25T02:29:42;7.70;98.60
47805;DHT22;33568;45.286;9.900;2022-11-25T02:32:09;7.70;98.50
47805;DHT22;33568;45.286;9.900;2022-11-25T02:34:44;7.70;98.50
47805;DHT22;33568;45.286;9.900;2022-11-25T02:37:10;7.70;98.80
47805;DHT22;33568;45.286;9.900;2022-11-25T02:39:37;7.70;98.70
47805;DHT22;33568;45.286;9.900;2022-11-25T02:42:03;7.60;99.00
47805;DHT22;33568;45.286;9.900;2022-11-25T02:44:30;7.60;98.60
47805;DHT22;33568;45.286;9.900;2022-11-25T02:46:57;7.60;98.60
47805;DHT22;33568;45.286;9.900;2022-11-25T02:49:23;7.70;98.60
47805;DHT22;33568;45.286;9.900;2022-11-25T02:51:51;7.70;99.00
47805;DHT22;33568;45.286;9.900;2022-11-25T02:54:17;7.70;98.70
47805;DHT22;33568;45.286;9.900;2022-11-25T02:56:43;7.70;98.60
47805;DHT22;33568;45.286;9.900;2022-11-25T02:59:10;7.70;98.60
47805;DHT22;33568;45.286;9.900;2022-11-25T03:01:37;7.70;99.10
47805;DHT22;33568;45.286;9.900;2022-11-25T03:04:05;7.70;98.60
47805;DHT22;33568;45.286;9.900;2022-11-25T03:06:32;7.70;98.50
47805;DHT22;33568;45.286;9.900;2022-11-25T03:08:58;7.70;98.80
47805;DHT22;33568;45.286;9.900;2022-11-25T03:11:27;7.80;98.50
47805;DHT22;33568;45.286;9.900;2022-11-25T03:14:12;7.70;98.40
47805;DHT22;33568;45.286;9.900;2022-11-25T03:16:39;7.70;98.50
47805;DHT22;33568;45.286;9.900;2022-11-25T03:19:05;7.80;98.60
47805;DHT22;33568;45.286;9.900;2022-11-25T03:21:32;7.70;98.60
47805;DHT22;33568;45.286;9.900;2022-11-25T03:23:58;7.70;98.60
47805;DHT22;33568;45.286;9.900;2022-11-25T03:26:24;7.70;98.60
47805;DHT22;33568;45.286;9.900;2022-11-25T03:28:52;7.70;98.90
47805;DHT22;33568;45.286;9.900;2022-11-25T03:31:18;7.70;98.70
47805;DHT22;33568;45.286;9.900;2022-11-25T03:33:45;7.70;98.60
47805;DHT22;33568;45.286;9.900;2022-11-25T03:36:11;7.70;98.70
47805;DHT22;33568;45.286;9.900;2022-11-25T03:38:37;7.60;98.70
47805;DHT22;33568;45.286;9.900;2022-11-25T03:41:04;7.60;98.80
47805;DHT22;33568;45.286;9.900;2022-11-25T03:43:32;7.60;98.80
47805;DHT22;33568;45.286;9.900;2022-11-25T03:45:58;7.60;98.90
47805;DHT22;33568;45.286;9.900;2022-11-25T03:48:24;7.50;99.10
47805;DHT22;33568;45.286;9.900;2022-11-25T03:50:51;7.40;99.70
47805;DHT22;33568;45.286;9.900;2022-11-25T03:53:17;7.50;99.40
47805;DHT22;33568;45.286;9.900;2022-11-25T03:55:46;7.50;99.40
47805;DHT22;33568;45.286;9.900;2022-11-25T03:58:12;7.50;99.80
47805;DHT22;33568;45.286;9.900;2022-11-25T04:00:39;7.60;99.30
47805;DHT22;33568;45.286;9.900;2022-11-25T04:03:05;7.60;99.20
47805;DHT22;33568;45.286;9.900;2022-11-25T04:05:32;7.50;99.60
47805;DHT22;33568;45.286;9.900;2022-11-25T04:08:03;7.60;99.30
47805;DHT22;33568;45.286;9.900;2022-11-25T04:10:31;7.70;99.10
47805;DHT22;33568;45.286;9.900;2022-11-25T04:12:58;7.70;99.10
47805;DHT22;33568;45.286;9.900;2022-11-25T04:15:32;7.70;99.50
47805;DHT22;33568;45.286;9.900;2022-11-25T04:17:59;7.70;99.20
47805;DHT22;33568;45.286;9.900;2022-11-25T04:20:25;7.70;99.10
47805;DHT22;33568;45.286;9.900;2022-11-25T04:22:59;7.70;99.70
47805;DHT22;33568;45.286;9.900;2022-11-25T04:25:26;7.70;99.20
47805;DHT22;33568;45.286;9.900;2022-11-25T04:27:53;7.80;99.10
47805;DHT22;33568;45.286;9.900;2022-11-25T04:30:25;7.70;99.20
47805;DHT22;33568;45.286;9.900;2022-11-25T04:32:53;7.80;99.30
47805;DHT22;33568;45.286;9.900;2022-11-25T04:35:20;7.90;99.40
47805;DHT22;33568;45.286;9.900;2022-11-25T04:37:51;7.90;99.40
47805;DHT22;33568;45.286;9.900;2022-11-25T04:40:17;7.90;99.50
47805;DHT22;33568;45.286;9.900;2022-11-25T04:42:48;7.80;99.90
47805;DHT22;33568;45.286;9.900;2022-11-25T04:45:18;7.90;99.70
47805;DHT22;33568;45.286;9.900;2022-11-25T04:47:46;7.90;99.60
47805;DHT22;33568;45.286;9.900;2022-11-25T04:50:17;7.90;99.70
47805;DHT22;33568;45.286;9.900;2022-11-25T04:53:10;7.90;99.90
47805;DHT22;33568;45.286;9.900;2022-11-25T04:55:39;7.90;99.70
47805;DHT22;33568;45.286;9.900;2022-11-25T04:58:12;8.00;99.60
47805;DHT22;33568;45.286;9.900;2022-11-25T05:00:40;8.00;99.60
47805;DHT22;33568;45.286;9.900;2022-11-25T05:03:09;8.10;99.60
47805;DHT22;33568;45.286;9.900;2022-11-25T05:05:38;8.00;99.60
47805;DHT22;33568;45.286;9.900;2022-11-25T05:08:04;8.00;99.60
47805;DHT22;33568;45.286;9.900;2022-11-25T05:10:32;8.00;99.70
47805;DHT22;33568;45.286;9.900;2022-11-25T05:12:58;8.00;99.80
47805;DHT22;33568;45.286;9.900;2022-11-25T05:15:24;7.90;99.80
47805;DHT22;33568;45.286;9.900;2022-11-25T05:17:52;7.90;99.90
47805;DHT22;33568;45.286;9.900;2022-11-25T05:20:31;8.00;99.90
47805;DHT22;33568;45.286;9.900;2022-11-25T05:22:58;7.90;99.90
47805;DHT22;33568;45.286;9.900;2022-11-25T05:25:24;7.90;99.80
47805;DHT22;33568;45.286;9.900;2022-11-25T05:28:10;7.90;99.80
47805;DHT22;33568;45.286;9.900;2022-11-25T05:30:36;7.80;99.70
47805;DHT22;33568;45.286;9.900;2022-11-25T05:33:04;7.80;99.60
47805;DHT22;33568;45.286;9.900;2022-11-25T05:35:30;7.70;99.60
47805;DHT22;33568;45.286;9.900;2022-11-25T05:37:58;7.70;99.70
47805;DHT22;33568;45.286;9.900;2022-11-25T05:40:26;7.50;99.80
47805;DHT22;33568;45.286;9.900;2022-11-25T05:42:59;7.50;99.90
47805;DHT22;33568;45.286;9.900;2022-11-25T05:45:28;7.50;99.90
47805;DHT22;33568;45.286;9.900;2022-11-25T05:47:55;7.50;99.90
47805;DHT22;33568;45.286;9.900;2022-11-25T05:50:25;7.50;99.90
47805;DHT22;33568;45.286;9.900;2022-11-25T05:53:10;7.40;99.90
47805;DHT22;33568;45.286;9.900;2022-11-25T05:55:37;7.40;99.90
47805;DHT22;33568;45.286;9.900;2022-11-25T05:58:08;7.40;99.90
47805;DHT22;33568;45.286;9.900;2022-11-25T06:00:35;7.40;99.90
47805;DHT22;33568;45.286;9.900;2022-11-25T06:03:08;7.40;99.90
47805;DHT22;33568;45.286;9.900;2022-11-25T06:05:34;7.40;99.90
47805;DHT22;33568;45.286;9.900;2022-11-25T06:08:01;7.40;99.90
47805;DHT22;33568;45.286;9.900;2022-11-25T06:10:27;7.40;99.90
47805;DHT22;33568;45.286;9.900;2022-11-25T06:12:53;7.30;99.90
47805;DHT22;33568;45.286;9.900;2022-11-25T06:15:20;7.30;99.90
47805;DHT22;33568;45.286;9.900;2022-11-25T06:17:48;7.30;99.90
47805;DHT22;33568;45.286;9.900;2022-11-25T06:20:20;7.30;99.70
47805;DHT22;33568;45.286;9.900;2022-11-25T06:22:46;7.30;99.70
47805;DHT22;33568;45.286;9.900;2022-11-25T06:25:18;7.20;99.80
47805;DHT22;33568;45.286;9.900;2022-11-25T06:27:46;7.10;99.90
47805;DHT22;33568;45.286;9.900;2022-11-25T06:30:13;7.10;99.90
47805;DHT22;33568;45.286;9.900;2022-11-25T06:32:45;7.10;99.90
47805;DHT22;33568;45.286;9.900;2022-11-25T06:35:20;7.10;99.90
47805;DHT22;33568;45.286;9.900;2022-11-25T06:37:54;7.10;99.90
47805;DHT22;33568;45.286;9.900;2022-11-25T06:40:20;7.10;99.90
47805;DHT22;33568;45.286;9.900;2022-11-25T06:42:46;7.10;99.90
47805;DHT22;33568;45.286;9.900;2022-11-25T06:45:13;7.10;99.90
47805;DHT22;33568;45.286;9.900;2022-11-25T06:47:39;7.20;99.90
47805;DHT22;33568;45.286;9.900;2022-11-25T06:50:06;7.20;99.90
47805;DHT22;33568;45.286;9.900;2022-11-25T06:52:32;7.10;99.90
47805;DHT22;33568;45.286;9.900;2022-11-25T06:54:58;7.10;99.90
47805;DHT22;33568;45.286;9.900;2022-11-25T06:57:25;7.10;99.90
47805;DHT22;33568;45.286;9.900;2022-11-25T06:59:51;7.10;99.90
47805;DHT22;33568;45.286;9.900;2022-11-25T07:02:17;7.20;99.90
47805;DHT22;33568;45.286;9.900;2022-11-25T07:04:44;7.10;99.80
47805;DHT22;33568;45.286;9.900;2022-11-25T07:07:10;7.10;99.80
47805;DHT22;33568;45.286;9.900;2022-11-25T07:09:37;7.10;99.80
47805;DHT22;33568;45.286;9.900;2022-11-25T07:12:06;7.10;99.80
47805;DHT22;33568;45.286;9.900;2022-11-25T07:14:32;7.00;99.80
47805;DHT22;33568;45.286;9.900;2022-11-25T07:16:59;7.10;99.90
47805;DHT22;33568;45.286;9.900;2022-11-25T07:19:25;7.00;99.90
47805;DHT22;33568;45.286;9.900;2022-11-25T07:21:51;7.10;99.90
47805;DHT22;33568;45.286;9.900;2022-11-25T07:24:18;7.00;99.90
47805;DHT22;33568;45.286;9.900;2022-11-25T07:26:44;7.00;99.90
47805;DHT22;33568;45.286;9.900;2022-11-25T07:29:14;7.00;99.90
47805;DHT22;33568;45.286;9.900;2022-11-25T07:31:44;7.10;99.90
47805;DHT22;33568;45.286;9.900;2022-11-25T07:36:39;7.10;99.90
47805;DHT22;33568;45.286;9.900;2022-11-25T07:39:10;7.10;99.90
47805;DHT22;33568;45.286;9.900;2022-11-25T07:41:36;7.20;99.90
47805;DHT22;33568;45.286;9.900;2022-11-25T07:44:04;7.20;99.90
47805;DHT22;33568;45.286;9.900;2022-11-25T07:46:45;7.10;99.90
47805;DHT22;33568;45.286;9.900;2022-11-25T07:49:20;7.30;99.90
47805;DHT22;33568;45.286;9.900;2022-11-25T07:54:14;7.50;99.90
47805;DHT22;33568;45.286;9.900;2022-11-25T07:56:42;7.70;99.90
47805;DHT22;33568;45.286;9.900;2022-11-25T07:59:15;7.80;99.90
47805;DHT22;33568;45.286;9.900;2022-11-25T08:01:42;7.90;99.90
47805;DHT22;33568;45.286;9.900;2022-11-25T08:04:10;8.00;99.90
47805;DHT22;33568;45.286;9.900;2022-11-25T08:06:42;8.10;99.90
47805;DHT22;33568;45.286;9.900;2022-11-25T08:09:10;8.20;99.90
47805;DHT22;33568;45.286;9.900;2022-11-25T08:11:37;8.30;99.90
47805;DHT22;33568;45.286;9.900;2022-11-25T08:14:04;8.40;99.90
47805;DHT22;33568;45.286;9.900;2022-11-25T08:16:31;8.50;99.90
47805;DHT22;33568;45.286;9.900;2022-11-25T08:19:00;8.60;99.90
47805;DHT22;33568;45.286;9.900;2022-11-25T08:21:27;8.70;99.90
47805;DHT22;33568;45.286;9.900;2022-11-25T08:23:54;8.80;99.90
47805;DHT22;33568;45.286;9.900;2022-11-25T08:26:23;8.90;99.90
47805;DHT22;33568;45.286;9.900;2022-11-25T08:28:52;9.00;99.90
47805;DHT22;33568;45.286;9.900;2022-11-25T08:31:22;9.10;99.90
47805;DHT22;33568;45.286;9.900;2022-11-25T08:33:49;9.20;99.90
47805;DHT22;33568;45.286;9.900;2022-11-25T08:36:17;9.30;99.90
47805;DHT22;33568;45.286;9.900;2022-11-25T08:38:45;9.40;99.90
47805;DHT22;33568;45.286;9.900;2022-11-25T08:41:21;9.50;99.90
47805;DHT22;33568;45.286;9.900;2022-11-25T08:43:47;9.70;99.90
47805;DHT22;33568;45.286;9.900;2022-11-25T08:46:15;9.70;99.90
47805;DHT22;33568;45.286;9.900;2022-11-25T08:48:42;9.70;99.90
47805;DHT22;33568;45.286;9.900;2022-11-25T08:51:14;9.90;99.90
47805;DHT22;33568;45.286;9.900;2022-11-25T08:53:42;10.10;99.90
47805;DHT22;33568;45.286;9.900;2022-11-25T08:56:09;10.20;99.90
47805;DHT22;33568;45.286;9.900;2022-11-25T08:58:37;10.20;99.90
47805;DHT22;33568;45.286;9.900;2022-11-25T09:01:05;10.20;99.90
47805;DHT22;33568;45.286;9.900;2022-11-25T09:03:37;10.30;99.90
47805;DHT22;33568;45.286;9.900;2022-11-25T09:06:04;10.30;99.90
47805;DHT22;33568;45.286;9.900;2022-11-25T09:08:31;10.50;99.90
47805;DHT22;33568;45.286;9.900;2022-11-25T09:10:58;10.60;99.80
47805;DHT22;33568;45.286;9.900;2022-11-25T09:13:24;10.60;99.70
47805;DHT22;33568;45.286;9.900;2022-11-25T09:15:50;10.70;99.80
47805;DHT22;33568;45.286;9.900;2022-11-25T09:18:17;10.80;99.70
47805;DHT22;33568;45.286;9.900;2022-11-25T09:20:46;10.90;99.50
47805;DHT22;33568;45.286;9.900;2022-11-25T09:23:12;11.10;99.30
47805;DHT22;33568;45.286;9.900;2022-11-25T09:25:39;11.10;99.10
47805;DHT22;33568;45.286;9.900;2022-11-25T09:28:05;11.30;99.00
47805;DHT22;33568;45.286;9.900;2022-11-25T09:30:32;11.60;98.80
47805;DHT22;33568;45.286;9.900;2022-11-25T09:32:58;12.90;98.40
47805;DHT22;33568;45.286;9.900;2022-11-25T09:35:25;14.80;96.00
47805;DHT22;33568;45.286;9.900;2022-11-25T09:37:52;16.80;93.00
47805;DHT22;33568;45.286;9.900;2022-11-25T09:46:25;21.40;72.60
47805;DHT22;33568;45.286;9.900;2022-11-25T09:54:38;24.20;61.70
47805;DHT22;33568;45.286;9.900;2022-11-25T09:57:26;24.30;64.80
47805;DHT22;33568;45.286;9.900;2022-11-25T10:02:34;24.90;59.80
47805;DHT22;33568;45.286;9.900;2022-11-25T10:07:42;25.80;57.00
47805;DHT22;33568;45.286;9.900;2022-11-25T10:10:26;25.90;56.40
47805;DHT22;33568;45.286;9.900;2022-11-25T10:12:55;26.40;54.00
47805;DHT22;33568;45.286;9.900;2022-11-25T10:15:29;27.00;54.00
47805;DHT22;33568;45.286;9.900;2022-11-25T10:18:00;27.30;52.10
47805;DHT22;33568;45.286;9.900;2022-11-25T10:20:36;27.10;51.70
47805;DHT22;33568;45.286;9.900;2022-11-25T10:25:38;27.30;50.30
47805;DHT22;33568;45.286;9.900;2022-11-25T10:28:19;27.00;49.80
47805;DHT22;33568;45.286;9.900;2022-11-25T10:31:05;26.90;48.80
47805;DHT22;33568;45.286;9.900;2022-11-25T10:33:45;27.00;48.30
47805;DHT22;33568;45.286;9.900;2022-11-25T10:36:20;27.30;49.10
47805;DHT22;33568;45.286;9.900;2022-11-25T10:39:12;27.60;47.80
47805;DHT22;33568;45.286;9.900;2022-11-25T10:44:30;27.60;47.10
47805;DHT22;33568;45.286;9.900;2022-11-25T10:50:12;27.10;47.20
47805;DHT22;33568;45.286;9.900;2022-11-25T10:55:26;27.40;47.60
47805;DHT22;33568;45.286;9.900;2022-11-25T10:57:53;27.50;47.00
47805;DHT22;33568;45.286;9.900;2022-11-25T11:00:29;27.50;46.70
47805;DHT22;33568;45.286;9.900;2022-11-25T11:02:57;27.30;46.30
47805;DHT22;33568;45.286;9.900;2022-11-25T11:05:29;26.80;47.10
47805;DHT22;33568;45.286;9.900;2022-11-25T11:10:38;26.60;45.30
47805;DHT22;33568;45.286;9.900;2022-11-25T11:15:54;26.40;46.90
47805;DHT22;33568;45.286;9.900;2022-11-25T11:18:26;26.20;46.90
47805;DHT22;33568;45.286;9.900;2022-11-25T11:20:58;25.70;47.10
47805;DHT22;33568;45.286;9.900;2022-11-25T11:23:26;25.70;46.70
47805;DHT22;33568;45.286;9.900;2022-11-25T11:26:02;25.70;46.90
47805;DHT22;33568;45.286;9.900;2022-11-25T11:31:33;25.40;46.70
47805;DHT22;33568;45.286;9.900;2022-11-25T11:39:54;24.50;48.10
47805;DHT22;33568;45.286;9.900;2022-11-25T11:45:16;25.10;48.00
47805;DHT22;33568;45.286;9.900;2022-11-25T11:50:55;25.90;46.90
47805;DHT22;33568;45.286;9.900;2022-11-25T11:53:34;25.90;45.80
47805;DHT22;33568;45.286;9.900;2022-11-25T11:59:00;25.20;47.10
47805;DHT22;33568;45.286;9.900;2022-11-25T12:04:34;25.60;47.50
47805;DHT22;33568;45.286;9.900;2022-11-25T12:07:08;25.60;47.00
47805;DHT22;33568;45.286;9.900;2022-11-25T12:09:43;25.30;47.70
47805;DHT22;33568;45.286;9.900;2022-11-25T12:12:16;24.00;47.90
47805;DHT22;33568;45.286;9.900;2022-11-25T12:14:45;22.30;50.50
47805;DHT22;33568;45.286;9.900;2022-11-25T12:20:16;19.70;54.70
47805;DHT22;33568;45.286;9.900;2022-11-25T12:22:50;18.70;57.00
47805;DHT22;33568;45.286;9.900;2022-11-25T12:25:22;18.00;58.70
47805;DHT22;33568;45.286;9.900;2022-11-25T12:28:07;17.40;60.00
47805;DHT22;33568;45.286;9.900;2022-11-25T12:33:59;16.70;63.00
47805;DHT22;33568;45.286;9.900;2022-11-25T12:36:42;16.40;64.40
47805;DHT22;33568;45.286;9.900;2022-11-25T12:39:28;16.00;65.60
47805;DHT22;33568;45.286;9.900;2022-11-25T12:42:02;15.70;67.10
47805;DHT22;33568;45.286;9.900;2022-11-25T12:47:15;15.30;69.00
47805;DHT22;33568;45.286;9.900;2022-11-25T12:49:46;15.30;69.30
47805;DHT22;33568;45.286;9.900;2022-11-25T13:00:23;15.20;71.90
47805;DHT22;33568;45.286;9.900;2022-11-25T13:17:21;14.80;76.00
47805;DHT22;33568;45.286;9.900;2022-11-25T13:22:33;14.60;76.90
47805;DHT22;33568;45.286;9.900;2022-11-25T13:24:59;14.60;77.80
47805;DHT22;33568;45.286;9.900;2022-11-25T13:27:34;14.60;78.10
47805;DHT22;33568;45.286;9.900;2022-11-25T13:41:01;14.20;82.10
47805;DHT22;33568;45.286;9.900;2022-11-25T13:43:28;14.20;82.10
47805;DHT22;33568;45.286;9.900;2022-11-25T13:45:54;14.20;82.80
47805;DHT22;33568;45.286;9.900;2022-11-25T13:48:31;14.10;85.20
47805;DHT22;33568;45.286;9.900;2022-11-25T13:51:23;14.10;83.50
47805;DHT22;33568;45.286;9.900;2022-11-25T13:53:56;14.10;84.00
47805;DHT22;33568;45.286;9.900;2022-11-25T13:56:28;14.20;84.00
47805;DHT22;33568;45.286;9.900;2022-11-25T14:04:12;14.10;85.30
47805;DHT22;33568;45.286;9.900;2022-11-25T14:06:44;14.10;85.60
47805;DHT22;33568;45.286;9.900;2022-11-25T14:09:30;14.20;86.00
47805;DHT22;33568;45.286;9.900;2022-11-25T14:14:58;14.10;86.60
47805;DHT22;33568;45.286;9.900;2022-11-25T14:17:57;14.10;87.10
47805;DHT22;33568;45.286;9.900;2022-11-25T14:26:24;14.00;88.30
47805;DHT22;33568;45.286;9.900;2022-11-25T14:29:02;13.90;88.60
47805;DHT22;33568;45.286;9.900;2022-11-25T14:32:01;13.80;90.00
47805;DHT22;33568;45.286;9.900;2022-11-25T14:37:44;13.70;89.10
47805;DHT22;33568;45.286;9.900;2022-11-25T14:40:44;13.70;89.70
47805;DHT22;33568;45.286;9.900;2022-11-25T14:43:23;13.60;90.30
47805;DHT22;33568;45.286;9.900;2022-11-25T14:46:14;13.60;90.20
47805;DHT22;33568;45.286;9.900;2022-11-25T14:48:42;13.60;90.30
47805;DHT22;33568;45.286;9.900;2022-11-25T14:51:10;13.60;90.40
47805;DHT22;33568;45.286;9.900;2022-11-25T14:53:46;13.50;90.50
47805;DHT22;33568;45.286;9.900;2022-11-25T14:56:22;13.40;90.70
47805;DHT22;33568;45.286;9.900;2022-11-25T14:58:51;13.40;90.90
47805;DHT22;33568;45.286;9.900;2022-11-25T15:01:32;13.30;91.70
47805;DHT22;33568;45.286;9.900;2022-11-25T15:06:41;13.20;91.20
47805;DHT22;33568;45.286;9.900;2022-11-25T15:09:27;13.20;91.20
47805;DHT22;33568;45.286;9.900;2022-11-25T15:11:58;13.10;91.50
47805;DHT22;33568;45.286;9.900;2022-11-25T15:14:29;13.00;91.60
47805;DHT22;33568;45.286;9.900;2022-11-25T15:16:57;13.00;91.70
47805;DHT22;33568;45.286;9.900;2022-11-25T15:19:26;12.90;91.90
47805;DHT22;33568;45.286;9.900;2022-11-25T15:21:58;12.90;92.00
47805;DHT22;33568;45.286;9.900;2022-11-25T15:24:32;12.80;92.20
47805;DHT22;33568;45.286;9.900;2022-11-25T15:27:21;12.70;92.30
47805;DHT22;33568;45.286;9.900;2022-11-25T15:29:50;12.60;92.50
47805;DHT22;33568;45.286;9.900;2022-11-25T15:32:23;12.60;92.60
47805;DHT22;33568;45.286;9.900;2022-11-25T15:34:52;12.50;92.70
47805;DHT22;33568;45.286;9.900;2022-11-25T15:37:19;12.40;92.80
47805;DHT22;33568;45.286;9.900;2022-11-25T15:39:46;12.40;92.90
47805;DHT22;33568;45.286;9.900;2022-11-25T15:42:19;12.30;93.00
47805;DHT22;33568;45.286;9.900;2022-11-25T15:47:22;12.10;93.20
47805;DHT22;33568;45.286;9.900;2022-11-25T15:50:05;12.00;93.30
47805;DHT22;33568;45.286;9.900;2022-11-25T15:52:35;12.00;93.40
47805;DHT22;33568;45.286;9.900;2022-11-25T15:55:17;11.90;93.50
47805;DHT22;33568;45.286;9.900;2022-11-25T15:57:48;11.90;93.70
47805;DHT22;33568;45.286;9.900;2022-11-25T16:00:20;11.80;93.70
47805;DHT22;33568;45.286;9.900;2022-11-25T16:02:54;11.70;93.80
47805;DHT22;33568;45.286;9.900;2022-11-25T16:05:31;11.60;93.90
47805;DHT22;33568;45.286;9.900;2022-11-25T16:08:50;11.50;94.00
47805;DHT22;33568;45.286;9.900;2022-11-25T16:10:52;11.50;94.10
47805;DHT22;33568;45.286;9.900;2022-11-25T16:18:24;11.30;94.40
47805;DHT22;33568;45.286;9.900;2022-11-25T16:20:57;11.30;94.50
47805;DHT22;33568;45.286;9.900;2022-11-25T16:23:25;11.20;94.60
47805;DHT22;33568;45.286;9.900;2022-11-25T16:26:01;11.20;94.60
47805;DHT22;33568;45.286;9.900;2022-11-25T16:28:27;11.10;94.70
47805;DHT22;33568;45.286;9.900;2022-11-25T16:30:54;11.10;94.80
47805;DHT22;33568;45.286;9.900;2022-11-25T16:33:23;11.10;94.80
47805;DHT22;33568;45.286;9.900;2022-11-25T16:35:52;11.00;94.90
47805;DHT22;33568;45.286;9.900;2022-11-25T16:38:19;11.00;95.00
47805;DHT22;33568;45.286;9.900;2022-11-25T16:40:45;10.90;95.10
47805;DHT22;33568;45.286;9.900;2022-11-25T16:43:19;10.90;95.30
47805;DHT22;33568;45.286;9.900;2022-11-25T16:45:52;10.90;95.40
47805;DHT22;33568;45.286;9.900;2022-11-25T16:48:21;10.80;95.40
47805;DHT22;33568;45.286;9.900;2022-11-25T16:50:48;10.90;95.50
47805;DHT22;33568;45.286;9.900;2022-11-25T16:53:15;10.80;95.50
47805;DHT22;33568;45.286;9.900;2022-11-25T16:55:43;10.80;95.60
47805;DHT22;33568;45.286;9.900;2022-11-25T16:58:20;10.70;95.60
47805;DHT22;33568;45.286;9.900;2022-11-25T17:00:53;10.70;95.70
47805;DHT22;33568;45.286;9.900;2022-11-25T17:03:20;10.60;95.60
47805;DHT22;33568;45.286;9.900;2022-11-25T17:05:49;10.60;95.70
47805;DHT22;33568;45.286;9.900;2022-11-25T17:08:16;10.60;95.80
47805;DHT22;33568;45.286;9.900;2022-11-25T17:10:43;10.50;95.90
47805;DHT22;33568;45.286;9.900;2022-11-25T17:13:17;10.50;95.90
47805;DHT22;33568;45.286;9.900;2022-11-25T17:15:44;10.50;96.00
47805;DHT22;33568;45.286;9.900;2022-11-25T17:18:13;10.50;96.00
47805;DHT22;33568;45.286;9.900;2022-11-25T17:20:42;10.40;96.00
47805;DHT22;33568;45.286;9.900;2022-11-25T17:23:15;10.40;96.00
47805;DHT22;33568;45.286;9.900;2022-11-25T17:25:45;10.40;96.00
47805;DHT22;33568;45.286;9.900;2022-11-25T17:28:18;10.30;96.00
47805;DHT22;33568;45.286;9.900;2022-11-25T17:30:46;10.30;96.10
47805;DHT22;33568;45.286;9.900;2022-11-25T17:33:18;10.30;96.00
47805;DHT22;33568;45.286;9.900;2022-11-25T17:35:45;10.20;96.10
47805;DHT22;33568;45.286;9.900;2022-11-25T17:38:15;10.20;96.20
47805;DHT22;33568;45.286;9.900;2022-11-25T17:40:42;10.20;96.40
47805;DHT22;33568;45.286;9.900;2022-11-25T17:43:20;10.10;96.10
47805;DHT22;33568;45.286;9.900;2022-11-25T17:45:47;10.00;96.10
47805;DHT22;33568;45.286;9.900;2022-11-25T17:48:16;10.00;96.10
47805;DHT22;33568;45.286;9.900;2022-11-25T17:50:43;9.90;96.20
47805;DHT22;33568;45.286;9.900;2022-11-25T17:53:10;9.90;96.20
47805;DHT22;33568;45.286;9.900;2022-11-25T17:55:37;9.80;96.30
47805;DHT22;33568;45.286;9.900;2022-11-25T17:58:05;9.80;96.40
47805;DHT22;33568;45.286;9.900;2022-11-25T18:00:33;9.80;96.30
47805;DHT22;33568;45.286;9.900;2022-11-25T18:03:00;9.70;96.30
47805;DHT22;33568;45.286;9.900;2022-11-25T18:05:27;9.70;96.40
47805;DHT22;33568;45.286;9.900;2022-11-25T18:07:53;9.70;96.50
47805;DHT22;33568;45.286;9.900;2022-11-25T18:10:23;9.70;96.70
47805;DHT22;33568;45.286;9.900;2022-11-25T18:12:52;9.70;96.70
47805;DHT22;33568;45.286;9.900;2022-11-25T18:15:22;9.70;96.70